KSUU/SUU METAR and TAF weather

Enter ICAO airport designator
Station Type Date Time Source
KSUU METAR 2020/01/20 18:58 UTC NOAA

KSUU 201858Z AUTO 00000KT 8SM FEW006 SCT130 08/07 A3006 RMK AO2 SLP187 T00760067 $


Station Type Date Time Source
KSUU Decoded METAR 2020/01/20 18:58 UTC NOAA

Fairfield / Travis Air Force Base, CA, United States (KSUU) 38-16N 121-57W 22M
Jan 20, 2020 - 01:58 PM EST / 2020.01.20 1858 UTC
Wind: Calm:0
Visibility: 8 mile(s):0
Sky conditions: partly cloudy
Temperature: 45.7 F (7.6 C)
Dew Point: 44.1 F (6.7 C)
Relative Humidity: 94%
Pressure (altimeter): 30.06 in. Hg (1017 hPa)
ob: KSUU 201858Z AUTO 00000KT 8SM FEW006 SCT130 08/07 A3006 RMK AO2 SLP187 T00760067
cycle: 19

Station Type Date Time Source
KSUU TAF 2020/01/20 15:29 UTC NOAA

TAF
AMD KSUU 201522Z 2015/2117 VRB06KT 4800 BR BKN160 QNH3003INS
BECMG 2017/2018 VRB06KT 9999 NSW BKN170 QNH3004INS
BECMG 2023/2024 23009KT 9999 SCT015 BKN020 QNH3006INS
BECMG 2114/2115 11009KT 8000 -SHRA BKN015 OVC020 QNH3000INS TX12/2023Z TN03/2015Z

Example: see airport list